Northern & Central Napa County

32 Stations

15 Minute Data | America/Los_Angeles
as of 5/10/26 12:18 AM PDT
Station Date Time Temp (°F) RH (%) Dew Pt (°F) Wind Spd (mph) Wind Dir (°) Wind Gust (mph) Latest Rain (In) Daily Rain (In) Daily Max Temp (°F) Daily Min Temp (°F)
Calistoga-North 5/10/26 0015 54.9   0.0 92   2 52.6   0.5 - - - 0.00 0.00 89.1   2.7 48.3   3.8
Stags Leap Dist (Chimney Rock) 5/10/26 0015 55.5   3.8 88   3 52.0   2.8 1.5   1.2 S | 172 4.1   2.4 0.00 0.00 78.9   3.6 45.7   5.4
Diamond Mtn (McEachran) 5/10/26 0015 55.6   0.2 87   5 51.9   1.3 - - - - - 84.4   2.6 50.2   0.5
Diamond Mtn (Schramsberg) 5/10/26 0015 54.9   1.4 88   0 51.4   1.2 - - - 0.00 0.00 85.1   3.8 50.0   0.8
Stags Leap Dist (Silverado Vineyards) 5/10/26 0015 55.3   2.4 83   4 50.3   0.9 2.6   1.8 SSE | 149 5.9   4.2 0.00 0.00 78.9   3.6 46.8   5.4
Oak Knoll-East (Ranch 53) 5/10/26 0015 54.4   0.4 88   2 51.1   1.1 0.9   0.1 SE | 138 2.3   0.1 0.00 0.00 80.4   4.3 47.7   4.9
Rutherford-North (Mee Ln) 5/10/26 0015 53.1   0.0 88   0 49.8   0.1 0.5   0.0 NNW | 348 1.8   0.2 0.00 0.00 82.3   3.7 44.6   4.8
Frisinger Napa-NW 5/10/26 0015 51.7   0.6 91   1 49.3   0.3 0.5   0.1 SW | 228 1.9   0.3 0.00 0.00 81.7   4.2 47.3   3.8
Napa-North (Ranch 29) 5/10/26 0015 55.1   1.2 88   0 51.6   1.3 0.0   0.2 ESE | 110 0.6   0.8 0.00 0.00 78.4   4.5 48.8   3.0
St. Helena (NVV Office) 5/10/26 0015 57.5   0.5 - - 0.7   0.2 ENE | 71 2.2   0.3 0.00 0.00 88.7   6.2 49.7   3.4
Crossroads Ranch 5/10/26 0015 55.4   1.1 84   1 50.8   0.7 0.2   0.8 ESE | 106 1.3   0.7 0.00 0.00 80.9   4.4 47.8   5.2
Oakville 5/10/26 0015 55.3   1.8 85   3 51.0   0.7 0.4   2.0 ESE | 109 2.2   1.1 0.00 0.00 80.0   3.7 47.4   5.2
OV561-East 5/10/26 0015 54.9   0.5 - - - - - - - 82.8   3.6 48.0   5.4
OV518-West 5/10/26 0015 56.3   2.3 - - - - - - - 80.5   3.5 48.1   4.9
Napa-NW (Ranch 54) 5/10/26 0015 53.2   0.2 90   0 50.2   0.2 0.5   0.5 WSW | 244 0.9   0.9 0.00 0.00 84.1   5.2 48.8   3.8
Calistoga (Ranch 78) 5/10/26 0015 55.1   0.9 89   2 51.9   0.3 1.0   0.1 S | 172 1.8   0.7 0.00 0.00 86.6   3.1 47.8   4.4
Yountville-SE (Ranch 85) 5/10/26 0015 55.4   0.9 88   1 52.0   1.3 0.7   0.5 SSW | 198 3.3   1.8 0.00 0.00 79.0   4.0 48.0   4.9
Yountville-South (Ranch 87) 5/9/26 1945 67.7   0.1 61   6 53.6   2.4 3.7   1.1 SE | 145 8.9   1.5 0.00 0.00 80.2   3.7 47.8   4.9
Rutherford Hill Estate 5/10/26 0015 54.3   0.5 87   0 50.4   0.6 0.4   0.4 SE | 131 2.6   1.1 0.00 0.00 83.4   4.7 50.2   1.2
Rutherford (STS) 5/10/26 0015 53.2   1.1 90   1 50.4   1.4 0.7   0.7 WNW | 284 2.8   1.9 0.00 0.00 83.8   4.2 47.0   4.6
Borreo (Soda Canyon) 5/10/26 0015 51.6   1.8 90   2 48.9   1.2 0.8   0.6 N | 10 3.0   0.3 0.00 0.00 76.5   3.9 45.4   4.3
Oakville-NE (Ranch 88) 5/10/26 0015 54.6   1.4 84   3 49.8   0.5 0.0   0.0 N | 0 0.0   0.0 0.00 0.00 82.5   4.2 46.5   6.4
Soda Canyon 5/10/26 0015 54.7   2.3 85   1 50.4   2.0 1.0   0.1 E | 100 3.3   1.1 0.00 0.00 77.6   4.0 46.8   4.1
Silver Oak OV 5/10/26 0015 55.4   0.4 86   1 51.4   0.8 0.4   1.0 ESE | 111 1.6   1.2 0.00 0.00 80.4   4.3 47.4   5.4
Tiara Fria (East St. Helena) 5/10/26 0015 56.9   0.3 82   1 51.6   0.6 1.3   0.5 ENE | 61 2.5   0.1 0.00 0.00 83.5   4.4 50.0   3.0
To Kalon Remote (TKKE) 5/10/26 0015 55.3   2.7 - - - - - - - 83.8   4.5 47.0   5.0
To Kalon 5/10/26 0015 53.9   0.9 91   1 51.3   0.6 0.6   0.4 NW | 314 1.9   0.4 0.00 0.00 80.6   3.2 47.4   5.2
To Kalon Remote (TKN5) 5/10/26 0015 55.2   1.5 - - - - - - - 84.6   4.5 47.5   5.6
St. Helena-North 5/10/26 0015 56.4   0.5 80   1 50.5   0.2 0.5   0.0 S | 178 1.1   0.9 0.00 0.00 88.0   7.5 49.0   3.8
Twomey Calistoga 5/10/26 0015 52.6   0.4 91   3 50.1   1.2 0.0   0.3 N | 0 0.0   1.0 0.00 0.00 85.5   2.7 45.8   5.1
Wappo Hill Floor 5/10/26 0015 54.8   1.8 87   0 50.9   1.9 1.6   1.2 SSW | 192 3.4   1.6 0.00 0.00 80.0   4.0 44.9   6.5
Yountville (Ranch 67) 5/10/26 0015 54.5   1.4 85   0 50.2   1.3 3.1   2.3 SSW | 204 6.0   3.7 0.00 0.00 79.2   4.3 46.9   5.3
Max     57.5 92 52.6 3.1 - 6.0 0.00 0.00 89.1 50.2
Avg     54.7 87 50.8 0.8 - 2.4 0.00 - - -
Min     51.6 80 48.9 0.0 - 0.0 0.00 0.00 76.5 44.6